sensor_id;sensor_type;location;lat;lon;timestamp;pressure;altitude;pressure_sealevel;temperature;humidity
41886;BME280;27567;43.084;25.616;2023-05-24T00:01:52;97966.72;;;11.93;100.00
41886;BME280;27567;43.084;25.616;2023-05-24T00:04:40;97965.50;;;11.88;100.00
41886;BME280;27567;43.084;25.616;2023-05-24T00:07:24;97963.31;;;11.79;100.00
41886;BME280;27567;43.084;25.616;2023-05-24T00:10:08;97967.91;;;11.71;100.00
41886;BME280;27567;43.084;25.616;2023-05-24T00:12:53;97954.97;;;11.62;100.00
41886;BME280;27567;43.084;25.616;2023-05-24T00:15:37;97948.50;;;11.69;100.00
41886;BME280;27567;43.084;25.616;2023-05-24T00:18:22;97956.13;;;11.72;100.00
41886;BME280;27567;43.084;25.616;2023-05-24T00:21:07;97954.47;;;11.71;100.00
41886;BME280;27567;43.084;25.616;2023-05-24T00:23:51;97950.38;;;11.69;100.00
41886;BME280;27567;43.084;25.616;2023-05-24T00:26:34;97946.31;;;11.60;100.00
41886;BME280;27567;43.084;25.616;2023-05-24T00:29:19;97948.88;;;11.48;100.00
41886;BME280;27567;43.084;25.616;2023-05-24T00:32:03;97938.19;;;11.41;100.00
41886;BME280;27567;43.084;25.616;2023-05-24T00:34:47;97941.47;;;11.43;100.00
41886;BME280;27567;43.084;25.616;2023-05-24T00:37:31;97943.38;;;11.36;100.00
41886;BME280;27567;43.084;25.616;2023-05-24T00:40:15;97932.94;;;11.21;100.00
41886;BME280;27567;43.084;25.616;2023-05-24T00:42:59;97936.66;;;11.20;100.00
41886;BME280;27567;43.084;25.616;2023-05-24T00:45:43;97939.19;;;11.08;100.00
41886;BME280;27567;43.084;25.616;2023-05-24T00:48:27;97933.44;;;11.04;100.00
41886;BME280;27567;43.084;25.616;2023-05-24T00:51:12;97932.84;;;11.02;100.00
41886;BME280;27567;43.084;25.616;2023-05-24T00:53:57;97929.13;;;11.03;100.00
41886;BME280;27567;43.084;25.616;2023-05-24T00:56:42;97930.22;;;10.89;100.00
41886;BME280;27567;43.084;25.616;2023-05-24T00:59:26;97942.59;;;10.90;100.00
41886;BME280;27567;43.084;25.616;2023-05-24T01:02:10;97935.78;;;10.94;100.00
41886;BME280;27567;43.084;25.616;2023-05-24T01:04:55;97934.94;;;10.93;100.00
41886;BME280;27567;43.084;25.616;2023-05-24T01:07:53;97941.53;;;10.97;100.00
41886;BME280;27567;43.084;25.616;2023-05-24T01:10:55;97942.81;;;10.88;100.00
41886;BME280;27567;43.084;25.616;2023-05-24T01:16:54;97942.50;;;11.10;100.00
41886;BME280;27567;43.084;25.616;2023-05-24T01:26:13;97942.50;;;11.10;100.00
41886;BME280;27567;43.084;25.616;2023-05-24T01:29:01;97947.66;;;11.11;100.00
41886;BME280;27567;43.084;25.616;2023-05-24T01:31:46;97952.88;;;11.00;100.00
41886;BME280;27567;43.084;25.616;2023-05-24T01:34:30;97951.44;;;10.97;100.00
41886;BME280;27567;43.084;25.616;2023-05-24T01:37:14;97943.44;;;10.83;100.00
41886;BME280;27567;43.084;25.616;2023-05-24T01:39:58;97949.41;;;10.92;100.00
41886;BME280;27567;43.084;25.616;2023-05-24T01:43:02;97949.34;;;11.06;100.00
41886;BME280;27567;43.084;25.616;2023-05-24T01:46:21;97953.69;;;11.07;100.00
41886;BME280;27567;43.084;25.616;2023-05-24T01:49:15;97948.13;;;11.02;100.00
41886;BME280;27567;43.084;25.616;2023-05-24T01:52:10;97944.41;;;10.96;100.00
41886;BME280;27567;43.084;25.616;2023-05-24T01:54:56;97952.50;;;10.89;100.00
41886;BME280;27567;43.084;25.616;2023-05-24T01:57:42;97948.16;;;10.88;100.00
41886;BME280;27567;43.084;25.616;2023-05-24T02:00:27;97951.72;;;10.75;100.00
41886;BME280;27567;43.084;25.616;2023-05-24T02:03:15;97946.19;;;10.70;100.00
41886;BME280;27567;43.084;25.616;2023-05-24T02:06:01;97948.59;;;10.85;100.00
41886;BME280;27567;43.084;25.616;2023-05-24T02:08:44;97952.91;;;10.86;100.00
41886;BME280;27567;43.084;25.616;2023-05-24T02:11:29;97952.91;;;10.86;100.00
41886;BME280;27567;43.084;25.616;2023-05-24T02:14:13;97953.94;;;10.85;100.00
41886;BME280;27567;43.084;25.616;2023-05-24T02:16:57;97951.31;;;10.78;100.00
41886;BME280;27567;43.084;25.616;2023-05-24T02:19:41;97955.06;;;10.71;100.00
41886;BME280;27567;43.084;25.616;2023-05-24T02:22:25;97958.59;;;10.58;100.00
41886;BME280;27567;43.084;25.616;2023-05-24T02:25:09;97947.69;;;10.59;100.00
41886;BME280;27567;43.084;25.616;2023-05-24T02:27:53;97949.91;;;10.69;100.00
41886;BME280;27567;43.084;25.616;2023-05-24T02:30:37;97949.91;;;10.69;100.00
41886;BME280;27567;43.084;25.616;2023-05-24T02:33:22;97948.53;;;10.53;100.00
41886;BME280;27567;43.084;25.616;2023-05-24T02:36:08;97954.28;;;10.57;100.00
41886;BME280;27567;43.084;25.616;2023-05-24T02:38:52;97955.09;;;10.50;100.00
41886;BME280;27567;43.084;25.616;2023-05-24T02:41:36;97949.78;;;10.44;100.00
41886;BME280;27567;43.084;25.616;2023-05-24T02:44:20;97961.31;;;10.44;100.00
41886;BME280;27567;43.084;25.616;2023-05-24T02:47:04;97955.31;;;10.35;100.00
41886;BME280;27567;43.084;25.616;2023-05-24T02:49:48;97950.59;;;10.31;100.00
41886;BME280;27567;43.084;25.616;2023-05-24T02:52:32;97955.34;;;10.29;100.00
41886;BME280;27567;43.084;25.616;2023-05-24T02:55:16;97953.06;;;10.26;100.00
41886;BME280;27567;43.084;25.616;2023-05-24T02:58:01;97959.06;;;10.21;100.00
41886;BME280;27567;43.084;25.616;2023-05-24T03:00:45;97953.50;;;10.22;100.00
41886;BME280;27567;43.084;25.616;2023-05-24T03:03:30;97961.53;;;10.29;100.00
41886;BME280;27567;43.084;25.616;2023-05-24T03:06:14;97960.69;;;10.29;100.00
41886;BME280;27567;43.084;25.616;2023-05-24T03:08:58;97954.53;;;10.28;100.00
41886;BME280;27567;43.084;25.616;2023-05-24T03:11:42;97954.13;;;10.18;100.00
41886;BME280;27567;43.084;25.616;2023-05-24T03:14:26;97957.22;;;10.21;100.00
41886;BME280;27567;43.084;25.616;2023-05-24T03:17:10;97963.19;;;10.17;100.00
41886;BME280;27567;43.084;25.616;2023-05-24T03:19:54;97962.56;;;10.28;100.00
41886;BME280;27567;43.084;25.616;2023-05-24T03:22:38;97966.28;;;10.27;100.00
41886;BME280;27567;43.084;25.616;2023-05-24T03:25:22;97968.75;;;10.22;100.00
41886;BME280;27567;43.084;25.616;2023-05-24T03:28:06;97958.44;;;10.32;100.00
41886;BME280;27567;43.084;25.616;2023-05-24T03:30:50;97956.97;;;10.36;100.00
41886;BME280;27567;43.084;25.616;2023-05-24T03:33:34;97963.81;;;10.39;100.00
41886;BME280;27567;43.084;25.616;2023-05-24T03:36:18;97968.75;;;10.42;100.00
41886;BME280;27567;43.084;25.616;2023-05-24T03:39:03;97970.38;;;10.50;100.00
41886;BME280;27567;43.084;25.616;2023-05-24T03:41:47;97975.53;;;10.58;100.00
41886;BME280;27567;43.084;25.616;2023-05-24T03:44:31;97978.19;;;10.58;100.00
41886;BME280;27567;43.084;25.616;2023-05-24T03:47:15;97974.25;;;10.67;100.00
41886;BME280;27567;43.084;25.616;2023-05-24T03:49:59;97976.88;;;10.74;100.00
41886;BME280;27567;43.084;25.616;2023-05-24T03:52:43;97981.38;;;10.87;100.00
41886;BME280;27567;43.084;25.616;2023-05-24T03:55:27;97974.78;;;10.90;100.00
41886;BME280;27567;43.084;25.616;2023-05-24T03:58:11;97981.56;;;10.92;100.00
41886;BME280;27567;43.084;25.616;2023-05-24T04:00:56;97977.06;;;10.93;100.00
41886;BME280;27567;43.084;25.616;2023-05-24T04:03:40;97973.69;;;11.04;100.00
41886;BME280;27567;43.084;25.616;2023-05-24T04:06:24;97965.34;;;11.19;100.00
41886;BME280;27567;43.084;25.616;2023-05-24T04:09:11;97968.41;;;11.30;100.00
41886;BME280;27567;43.084;25.616;2023-05-24T04:11:55;97975.63;;;11.29;100.00
41886;BME280;27567;43.084;25.616;2023-05-24T04:14:39;97973.91;;;11.41;100.00
41886;BME280;27567;43.084;25.616;2023-05-24T04:17:23;97975.72;;;11.48;100.00
41886;BME280;27567;43.084;25.616;2023-05-24T04:20:08;97972.16;;;11.54;100.00
41886;BME280;27567;43.084;25.616;2023-05-24T04:22:52;97977.50;;;11.61;100.00
41886;BME280;27567;43.084;25.616;2023-05-24T04:25:37;97970.22;;;11.68;100.00
41886;BME280;27567;43.084;25.616;2023-05-24T04:28:21;97971.72;;;11.89;100.00
41886;BME280;27567;43.084;25.616;2023-05-24T04:31:06;97971.41;;;12.04;100.00
41886;BME280;27567;43.084;25.616;2023-05-24T04:33:52;97979.41;;;12.11;100.00
41886;BME280;27567;43.084;25.616;2023-05-24T04:36:38;97975.56;;;12.25;100.00
41886;BME280;27567;43.084;25.616;2023-05-24T04:39:22;97987.09;;;12.51;100.00
41886;BME280;27567;43.084;25.616;2023-05-24T04:42:11;97981.28;;;12.54;100.00
41886;BME280;27567;43.084;25.616;2023-05-24T04:44:55;97980.91;;;12.69;100.00
41886;BME280;27567;43.084;25.616;2023-05-24T04:47:40;97985.69;;;12.86;100.00
41886;BME280;27567;43.084;25.616;2023-05-24T04:50:26;97988.97;;;12.88;100.00
41886;BME280;27567;43.084;25.616;2023-05-24T04:53:11;97980.44;;;13.10;100.00
41886;BME280;27567;43.084;25.616;2023-05-24T04:55:56;97981.47;;;13.39;100.00
41886;BME280;27567;43.084;25.616;2023-05-24T04:58:40;97984.41;;;13.37;100.00
41886;BME280;27567;43.084;25.616;2023-05-24T05:01:24;97985.81;;;13.59;100.00
41886;BME280;27567;43.084;25.616;2023-05-24T05:04:08;97991.09;;;13.65;100.00
41886;BME280;27567;43.084;25.616;2023-05-24T05:06:52;97995.63;;;13.95;100.00
41886;BME280;27567;43.084;25.616;2023-05-24T05:09:38;97993.63;;;14.15;100.00
41886;BME280;27567;43.084;25.616;2023-05-24T05:12:24;97995.75;;;14.36;100.00
41886;BME280;27567;43.084;25.616;2023-05-24T05:15:09;97996.13;;;14.40;100.00
41886;BME280;27567;43.084;25.616;2023-05-24T05:17:53;97996.09;;;14.64;100.00
41886;BME280;27567;43.084;25.616;2023-05-24T05:20:37;97993.50;;;14.69;100.00
41886;BME280;27567;43.084;25.616;2023-05-24T05:23:21;98002.75;;;14.85;100.00
41886;BME280;27567;43.084;25.616;2023-05-24T05:26:05;98002.81;;;15.14;100.00
41886;BME280;27567;43.084;25.616;2023-05-24T05:28:50;98011.28;;;15.46;100.00
41886;BME280;27567;43.084;25.616;2023-05-24T05:31:34;98010.22;;;15.47;100.00
41886;BME280;27567;43.084;25.616;2023-05-24T05:34:19;98017.03;;;15.67;100.00
41886;BME280;27567;43.084;25.616;2023-05-24T05:37:04;98010.88;;;15.84;100.00
41886;BME280;27567;43.084;25.616;2023-05-24T05:39:48;98009.81;;;16.02;100.00
41886;BME280;27567;43.084;25.616;2023-05-24T05:42:32;98022.47;;;16.13;100.00
41886;BME280;27567;43.084;25.616;2023-05-24T05:45:16;98020.34;;;16.32;100.00
41886;BME280;27567;43.084;25.616;2023-05-24T05:48:00;98030.88;;;16.68;100.00
41886;BME280;27567;43.084;25.616;2023-05-24T05:50:44;98024.69;;;16.73;100.00
41886;BME280;27567;43.084;25.616;2023-05-24T05:53:28;98026.34;;;16.74;100.00
41886;BME280;27567;43.084;25.616;2023-05-24T05:56:12;98035.91;;;16.98;100.00
41886;BME280;27567;43.084;25.616;2023-05-24T05:58:56;98042.94;;;17.22;100.00
41886;BME280;27567;43.084;25.616;2023-05-24T06:01:41;98038.69;;;17.26;100.00
41886;BME280;27567;43.084;25.616;2023-05-24T06:04:25;98040.66;;;17.31;100.00
41886;BME280;27567;43.084;25.616;2023-05-24T06:07:09;98046.53;;;17.50;100.00
41886;BME280;27567;43.084;25.616;2023-05-24T06:09:53;98036.69;;;17.93;100.00
41886;BME280;27567;43.084;25.616;2023-05-24T06:12:37;98049.56;;;18.03;100.00
41886;BME280;27567;43.084;25.616;2023-05-24T06:15:23;98043.81;;;17.99;100.00
41886;BME280;27567;43.084;25.616;2023-05-24T06:18:07;98043.56;;;18.33;100.00
41886;BME280;27567;43.084;25.616;2023-05-24T06:20:51;98041.59;;;18.61;100.00
41886;BME280;27567;43.084;25.616;2023-05-24T06:23:36;98053.75;;;18.97;100.00
41886;BME280;27567;43.084;25.616;2023-05-24T06:26:20;98046.75;;;19.06;100.00
41886;BME280;27567;43.084;25.616;2023-05-24T06:29:05;98049.31;;;19.33;100.00
41886;BME280;27567;43.084;25.616;2023-05-24T06:31:50;98052.13;;;19.59;100.00
41886;BME280;27567;43.084;25.616;2023-05-24T06:34:34;98051.31;;;19.69;100.00
41886;BME280;27567;43.084;25.616;2023-05-24T06:37:18;98050.84;;;19.88;100.00
41886;BME280;27567;43.084;25.616;2023-05-24T06:40:08;98044.53;;;19.77;100.00
41886;BME280;27567;43.084;25.616;2023-05-24T06:42:52;98050.84;;;19.88;100.00
41886;BME280;27567;43.084;25.616;2023-05-24T06:45:36;98044.59;;;20.23;100.00
41886;BME280;27567;43.084;25.616;2023-05-24T06:48:20;98047.59;;;20.37;100.00
41886;BME280;27567;43.084;25.616;2023-05-24T06:51:04;98043.25;;;20.21;100.00
41886;BME280;27567;43.084;25.616;2023-05-24T06:53:49;98045.16;;;20.56;100.00
41886;BME280;27567;43.084;25.616;2023-05-24T06:56:34;98044.84;;;20.84;100.00
41886;BME280;27567;43.084;25.616;2023-05-24T06:59:18;98048.66;;;20.67;100.00
41886;BME280;27567;43.084;25.616;2023-05-24T07:02:02;98050.03;;;20.91;100.00
41886;BME280;27567;43.084;25.616;2023-05-24T07:04:47;98049.19;;;20.95;100.00
41886;BME280;27567;43.084;25.616;2023-05-24T07:07:31;98054.56;;;21.11;100.00
41886;BME280;27567;43.084;25.616;2023-05-24T07:10:16;98048.00;;;21.27;100.00
41886;BME280;27567;43.084;25.616;2023-05-24T07:13:00;98055.84;;;21.39;100.00
41886;BME280;27567;43.084;25.616;2023-05-24T07:15:45;98054.16;;;21.48;100.00
41886;BME280;27567;43.084;25.616;2023-05-24T07:18:29;98055.47;;;21.56;100.00
41886;BME280;27567;43.084;25.616;2023-05-24T07:21:14;98051.38;;;21.59;100.00
41886;BME280;27567;43.084;25.616;2023-05-24T07:23:58;98054.44;;;21.52;100.00
41886;BME280;27567;43.084;25.616;2023-05-24T07:26:41;98063.31;;;21.73;100.00
41886;BME280;27567;43.084;25.616;2023-05-24T07:29:25;98060.00;;;21.87;100.00
41886;BME280;27567;43.084;25.616;2023-05-24T07:32:10;98060.06;;;22.51;100.00
41886;BME280;27567;43.084;25.616;2023-05-24T07:34:54;98053.81;;;22.50;100.00
41886;BME280;27567;43.084;25.616;2023-05-24T07:37:39;98052.38;;;22.58;100.00
41886;BME280;27567;43.084;25.616;2023-05-24T07:40:24;98058.63;;;22.24;100.00
41886;BME280;27567;43.084;25.616;2023-05-24T07:43:08;98064.31;;;22.28;100.00
41886;BME280;27567;43.084;25.616;2023-05-24T07:45:52;98051.13;;;22.40;100.00
41886;BME280;27567;43.084;25.616;2023-05-24T07:48:37;98065.16;;;21.88;100.00
41886;BME280;27567;43.084;25.616;2023-05-24T07:51:21;98069.09;;;21.67;100.00
41886;BME280;27567;43.084;25.616;2023-05-24T07:54:05;98071.28;;;21.59;100.00
41886;BME280;27567;43.084;25.616;2023-05-24T07:56:50;98073.31;;;21.33;100.00
41886;BME280;27567;43.084;25.616;2023-05-24T07:59:35;98071.16;;;21.30;100.00
41886;BME280;27567;43.084;25.616;2023-05-24T08:02:21;98076.59;;;21.35;100.00
41886;BME280;27567;43.084;25.616;2023-05-24T08:05:05;98068.81;;;21.68;100.00
41886;BME280;27567;43.084;25.616;2023-05-24T08:07:51;98074.44;;;21.87;100.00
41886;BME280;27567;43.084;25.616;2023-05-24T08:10:36;98065.34;;;21.47;100.00
41886;BME280;27567;43.084;25.616;2023-05-24T08:13:20;98069.88;;;21.01;100.00
41886;BME280;27567;43.084;25.616;2023-05-24T08:16:04;98069.81;;;21.22;100.00
41886;BME280;27567;43.084;25.616;2023-05-24T08:18:48;98066.47;;;21.36;100.00
41886;BME280;27567;43.084;25.616;2023-05-24T08:21:32;98061.22;;;21.65;100.00
41886;BME280;27567;43.084;25.616;2023-05-24T08:24:16;98069.97;;;21.46;100.00
41886;BME280;27567;43.084;25.616;2023-05-24T08:27:00;98067.47;;;21.55;100.00
41886;BME280;27567;43.084;25.616;2023-05-24T08:29:45;98066.13;;;21.53;100.00
41886;BME280;27567;43.084;25.616;2023-05-24T08:32:29;98076.28;;;21.42;100.00
41886;BME280;27567;43.084;25.616;2023-05-24T08:35:13;98081.97;;;21.61;100.00
41886;BME280;27567;43.084;25.616;2023-05-24T08:37:57;98080.94;;;21.97;100.00
41886;BME280;27567;43.084;25.616;2023-05-24T08:40:41;98079.56;;;22.34;100.00
41886;BME280;27567;43.084;25.616;2023-05-24T08:43:27;98073.84;;;22.70;100.00
41886;BME280;27567;43.084;25.616;2023-05-24T08:46:13;98081.88;;;22.56;100.00
41886;BME280;27567;43.084;25.616;2023-05-24T08:48:58;98080.00;;;22.81;100.00
41886;BME280;27567;43.084;25.616;2023-05-24T08:51:44;98076.38;;;22.91;100.00
41886;BME280;27567;43.084;25.616;2023-05-24T08:54:29;98075.13;;;23.02;100.00
41886;BME280;27567;43.084;25.616;2023-05-24T08:57:14;98079.44;;;22.84;100.00
41886;BME280;27567;43.084;25.616;2023-05-24T08:59:59;98086.50;;;22.56;100.00
41886;BME280;27567;43.084;25.616;2023-05-24T09:02:45;98087.78;;;22.29;100.00
41886;BME280;27567;43.084;25.616;2023-05-24T09:05:29;98080.09;;;22.36;100.00
41886;BME280;27567;43.084;25.616;2023-05-24T09:08:13;98072.81;;;23.15;100.00
41886;BME280;27567;43.084;25.616;2023-05-24T09:11:02;98080.84;;;23.54;100.00
41886;BME280;27567;43.084;25.616;2023-05-24T09:13:47;98071.19;;;23.14;100.00
41886;BME280;27567;43.084;25.616;2023-05-24T09:16:31;98075.22;;;22.97;100.00
41886;BME280;27567;43.084;25.616;2023-05-24T09:19:16;98082.19;;;23.08;100.00
41886;BME280;27567;43.084;25.616;2023-05-24T09:22:02;98080.84;;;23.54;100.00
41886;BME280;27567;43.084;25.616;2023-05-24T09:24:46;98084.22;;;23.70;100.00
41886;BME280;27567;43.084;25.616;2023-05-24T09:27:32;98083.38;;;23.70;100.00
41886;BME280;27567;43.084;25.616;2023-05-24T09:30:17;98089.16;;;23.68;100.00
41886;BME280;27567;43.084;25.616;2023-05-24T09:33:01;98087.63;;;24.00;100.00
41886;BME280;27567;43.084;25.616;2023-05-24T09:35:48;98091.53;;;23.32;100.00
41886;BME280;27567;43.084;25.616;2023-05-24T09:38:32;98094.53;;;23.30;100.00
41886;BME280;27567;43.084;25.616;2023-05-24T09:41:19;98092.25;;;23.62;100.00
41886;BME280;27567;43.084;25.616;2023-05-24T09:44:04;98079.22;;;24.16;100.00
41886;BME280;27567;43.084;25.616;2023-05-24T09:46:48;98084.31;;;24.04;100.00
41886;BME280;27567;43.084;25.616;2023-05-24T09:49:35;98082.28;;;24.28;100.00
41886;BME280;27567;43.084;25.616;2023-05-24T09:52:20;98068.97;;;24.41;100.00
41886;BME280;27567;43.084;25.616;2023-05-24T09:55:15;98075.13;;;24.13;100.00
41886;BME280;27567;43.084;25.616;2023-05-24T09:58:02;98074.09;;;23.90;100.00
41886;BME280;27567;43.084;25.616;2023-05-24T10:00:47;98069.56;;;24.38;100.00
41886;BME280;27567;43.084;25.616;2023-05-24T10:03:31;98063.97;;;24.76;100.00
41886;BME280;27567;43.084;25.616;2023-05-24T10:06:16;98070.53;;;25.08;100.00
41886;BME280;27567;43.084;25.616;2023-05-24T10:09:02;98068.16;;;24.73;100.00
41886;BME280;27567;43.084;25.616;2023-05-24T10:11:48;98066.28;;;26.31;96.41
41886;BME280;27567;43.084;25.616;2023-05-24T10:14:34;98063.19;;;26.33;82.25
41886;BME280;27567;43.084;25.616;2023-05-24T10:17:19;98060.13;;;27.20;76.40
41886;BME280;27567;43.084;25.616;2023-05-24T10:20:04;98058.34;;;28.00;71.79
41886;BME280;27567;43.084;25.616;2023-05-24T10:23:00;98062.75;;;29.31;61.14
41886;BME280;27567;43.084;25.616;2023-05-24T10:25:49;98046.88;;;30.55;55.12
41886;BME280;27567;43.084;25.616;2023-05-24T10:28:37;98056.09;;;30.81;56.47
41886;BME280;27567;43.084;25.616;2023-05-24T10:31:37;98044.81;;;32.14;50.00
41886;BME280;27567;43.084;25.616;2023-05-24T10:34:23;98060.34;;;30.78;50.64
41886;BME280;27567;43.084;25.616;2023-05-24T10:37:08;98042.66;;;31.16;51.87
41886;BME280;27567;43.084;25.616;2023-05-24T10:39:54;98040.91;;;32.31;50.01
41886;BME280;27567;43.084;25.616;2023-05-24T10:42:42;98035.66;;;33.70;41.67
41886;BME280;27567;43.084;25.616;2023-05-24T10:51:00;98033.19;;;31.96;47.38
41886;BME280;27567;43.084;25.616;2023-05-24T10:53:44;98027.41;;;35.22;39.14
41886;BME280;27567;43.084;25.616;2023-05-24T10:56:29;98025.31;;;37.17;34.75
41886;BME280;27567;43.084;25.616;2023-05-24T10:59:30;98007.59;;;38.82;31.26
41886;BME280;27567;43.084;25.616;2023-05-24T11:02:18;98002.34;;;39.57;29.24
41886;BME280;27567;43.084;25.616;2023-05-24T11:05:04;97996.59;;;39.93;29.01
41886;BME280;27567;43.084;25.616;2023-05-24T11:07:48;98003.78;;;40.72;27.77
41886;BME280;27567;43.084;25.616;2023-05-24T11:10:34;97998.41;;;39.00;29.43
41886;BME280;27567;43.084;25.616;2023-05-24T11:13:21;97997.97;;;37.48;31.57
41886;BME280;27567;43.084;25.616;2023-05-24T11:16:06;97998.38;;;35.80;36.05
41886;BME280;27567;43.084;25.616;2023-05-24T11:18:56;97995.84;;;35.14;38.83
41886;BME280;27567;43.084;25.616;2023-05-24T11:21:42;97994.56;;;36.68;33.55
41886;BME280;27567;43.084;25.616;2023-05-24T11:24:27;97990.84;;;34.11;39.49
41886;BME280;27567;43.084;25.616;2023-05-24T11:27:12;97990.03;;;34.53;43.72
41886;BME280;27567;43.084;25.616;2023-05-24T11:29:57;97992.28;;;33.46;43.39
41886;BME280;27567;43.084;25.616;2023-05-24T11:32:46;97986.53;;;34.56;43.54
41886;BME280;27567;43.084;25.616;2023-05-24T11:35:31;97980.25;;;33.97;44.27
41886;BME280;27567;43.084;25.616;2023-05-24T11:38:15;97980.88;;;35.53;40.09
41886;BME280;27567;43.084;25.616;2023-05-24T11:41:00;97977.63;;;32.65;50.75
41886;BME280;27567;43.084;25.616;2023-05-24T11:43:44;97983.56;;;34.45;41.26
41886;BME280;27567;43.084;25.616;2023-05-24T11:46:29;97980.88;;;37.00;37.88
41886;BME280;27567;43.084;25.616;2023-05-24T11:49:16;97979.41;;;37.18;37.88
41886;BME280;27567;43.084;25.616;2023-05-24T11:52:00;97969.78;;;36.21;39.19
41886;BME280;27567;43.084;25.616;2023-05-24T11:54:45;97976.50;;;34.32;43.95
41886;BME280;27567;43.084;25.616;2023-05-24T11:57:35;97968.88;;;34.06;44.73
41886;BME280;27567;43.084;25.616;2023-05-24T12:00:27;97968.97;;;32.82;44.87
41886;BME280;27567;43.084;25.616;2023-05-24T12:03:11;97961.31;;;36.14;37.47
41886;BME280;27567;43.084;25.616;2023-05-24T12:05:56;97959.81;;;39.69;31.59
41886;BME280;27567;43.084;25.616;2023-05-24T12:08:40;97952.38;;;38.46;32.62
41886;BME280;27567;43.084;25.616;2023-05-24T12:11:24;97955.09;;;34.79;41.13
41886;BME280;27567;43.084;25.616;2023-05-24T12:14:13;97954.63;;;33.68;44.23
41886;BME280;27567;43.084;25.616;2023-05-24T12:16:58;97956.66;;;34.53;42.20
41886;BME280;27567;43.084;25.616;2023-05-24T12:19:43;97940.72;;;37.20;35.18
41886;BME280;27567;43.084;25.616;2023-05-24T12:22:28;97946.28;;;35.88;37.97
41886;BME280;27567;43.084;25.616;2023-05-24T12:25:16;97949.50;;;33.15;52.57
41886;BME280;27567;43.084;25.616;2023-05-24T12:28:06;97949.94;;;34.35;45.34
41886;BME280;27567;43.084;25.616;2023-05-24T12:30:53;97942.94;;;35.45;37.57
41886;BME280;27567;43.084;25.616;2023-05-24T12:33:37;97940.06;;;36.89;36.20
41886;BME280;27567;43.084;25.616;2023-05-24T12:36:27;97938.28;;;36.21;36.73
41886;BME280;27567;43.084;25.616;2023-05-24T12:39:26;97931.06;;;36.16;37.77
41886;BME280;27567;43.084;25.616;2023-05-24T12:42:22;97934.25;;;34.46;44.37
41886;BME280;27567;43.084;25.616;2023-05-24T12:45:07;97935.31;;;35.11;44.33
41886;BME280;27567;43.084;25.616;2023-05-24T12:47:53;97933.56;;;34.76;45.09
41886;BME280;27567;43.084;25.616;2023-05-24T12:50:37;97938.78;;;38.52;35.69
41886;BME280;27567;43.084;25.616;2023-05-24T12:53:21;97930.28;;;40.24;32.09
41886;BME280;27567;43.084;25.616;2023-05-24T12:56:07;97922.97;;;40.87;31.10
41886;BME280;27567;43.084;25.616;2023-05-24T12:58:51;97931.72;;;39.87;31.00
41886;BME280;27567;43.084;25.616;2023-05-24T13:01:36;97937.16;;;35.30;40.57
41886;BME280;27567;43.084;25.616;2023-05-24T13:04:21;97929.91;;;32.27;53.85
41886;BME280;27567;43.084;25.616;2023-05-24T13:07:07;97931.94;;;30.08;62.45
41886;BME280;27567;43.084;25.616;2023-05-24T13:09:50;97935.31;;;29.29;71.04
41886;BME280;27567;43.084;25.616;2023-05-24T13:12:34;97941.25;;;29.40;67.17
41886;BME280;27567;43.084;25.616;2023-05-24T13:15:19;97926.78;;;30.19;62.98
41886;BME280;27567;43.084;25.616;2023-05-24T13:18:05;97930.69;;;33.83;45.98
41886;BME280;27567;43.084;25.616;2023-05-24T13:20:49;97921.34;;;37.59;35.89
41886;BME280;27567;43.084;25.616;2023-05-24T13:23:34;97937.97;;;38.44;33.62
41886;BME280;27567;43.084;25.616;2023-05-24T13:26:20;97933.63;;;36.32;38.34
41886;BME280;27567;43.084;25.616;2023-05-24T13:29:05;97937.06;;;33.64;50.29
41886;BME280;27567;43.084;25.616;2023-05-24T13:31:49;97939.13;;;34.99;46.21
41886;BME280;27567;43.084;25.616;2023-05-24T13:34:33;97930.41;;;33.13;52.07
41886;BME280;27567;43.084;25.616;2023-05-24T13:37:17;97935.22;;;32.48;56.78
41886;BME280;27567;43.084;25.616;2023-05-24T13:40:02;97923.28;;;32.96;55.55
41886;BME280;27567;43.084;25.616;2023-05-24T13:42:47;97926.53;;;32.66;57.63
41886;BME280;27567;43.084;25.616;2023-05-24T13:45:31;97921.75;;;32.66;58.60
41886;BME280;27567;43.084;25.616;2023-05-24T13:48:16;97921.63;;;33.47;56.44
41886;BME280;27567;43.084;25.616;2023-05-24T13:51:00;97922.84;;;34.51;51.63
41886;BME280;27567;43.084;25.616;2023-05-24T13:53:44;97924.56;;;32.34;60.91
41886;BME280;27567;43.084;25.616;2023-05-24T13:56:30;97927.09;;;32.11;63.26
41886;BME280;27567;43.084;25.616;2023-05-24T13:59:15;97920.59;;;29.67;77.21
41886;BME280;27567;43.084;25.616;2023-05-24T14:01:59;97932.22;;;27.09;100.00
41886;BME280;27567;43.084;25.616;2023-05-24T14:04:44;97949.94;;;25.31;100.00
41886;BME280;27567;43.084;25.616;2023-05-24T14:07:28;97950.38;;;24.68;100.00
41886;BME280;27567;43.084;25.616;2023-05-24T14:10:12;97943.31;;;23.49;100.00
41886;BME280;27567;43.084;25.616;2023-05-24T14:12:56;97953.56;;;23.19;100.00
41886;BME280;27567;43.084;25.616;2023-05-24T14:15:41;97944.03;;;22.73;100.00
41886;BME280;27567;43.084;25.616;2023-05-24T14:18:25;97947.56;;;22.19;100.00
41886;BME280;27567;43.084;25.616;2023-05-24T14:21:09;97945.47;;;22.06;100.00
41886;BME280;27567;43.084;25.616;2023-05-24T14:23:53;97954.03;;;21.94;100.00
41886;BME280;27567;43.084;25.616;2023-05-24T14:26:37;97946.69;;;21.95;100.00
41886;BME280;27567;43.084;25.616;2023-05-24T14:29:21;97947.59;;;22.14;100.00
41886;BME280;27567;43.084;25.616;2023-05-24T14:32:05;97947.22;;;22.26;100.00